sensor_id;sensor_type;location;lat;lon;timestamp;temperature;humidity
19025;DHT22;9645;51.448;6.260;2023-03-31T00:02:13;10.70;99.90
19025;DHT22;9645;51.448;6.260;2023-03-31T00:04:40;10.80;99.90
19025;DHT22;9645;51.448;6.260;2023-03-31T00:07:11;10.80;99.90
19025;DHT22;9645;51.448;6.260;2023-03-31T00:09:38;10.80;99.90
19025;DHT22;9645;51.448;6.260;2023-03-31T00:12:06;10.80;99.90
19025;DHT22;9645;51.448;6.260;2023-03-31T00:14:35;10.80;99.90
19025;DHT22;9645;51.448;6.260;2023-03-31T00:17:01;10.80;99.90
19025;DHT22;9645;51.448;6.260;2023-03-31T00:19:29;10.80;99.90
19025;DHT22;9645;51.448;6.260;2023-03-31T00:21:58;10.80;99.90
19025;DHT22;9645;51.448;6.260;2023-03-31T00:24:27;10.80;99.90
19025;DHT22;9645;51.448;6.260;2023-03-31T00:26:57;10.80;99.90
19025;DHT22;9645;51.448;6.260;2023-03-31T00:29:24;10.80;99.90
19025;DHT22;9645;51.448;6.260;2023-03-31T00:31:56;10.80;99.90
19025;DHT22;9645;51.448;6.260;2023-03-31T00:34:24;10.80;99.90
19025;DHT22;9645;51.448;6.260;2023-03-31T00:36:51;10.70;99.90
19025;DHT22;9645;51.448;6.260;2023-03-31T00:39:21;10.80;99.90
19025;DHT22;9645;51.448;6.260;2023-03-31T00:41:49;10.70;99.90
19025;DHT22;9645;51.448;6.260;2023-03-31T00:44:18;10.70;99.90
19025;DHT22;9645;51.448;6.260;2023-03-31T00:46:51;10.70;99.90
19025;DHT22;9645;51.448;6.260;2023-03-31T00:49:26;10.60;99.90
19025;DHT22;9645;51.448;6.260;2023-03-31T00:51:59;10.50;99.90
19025;DHT22;9645;51.448;6.260;2023-03-31T00:54:29;10.60;99.90
19025;DHT22;9645;51.448;6.260;2023-03-31T00:56:58;10.60;99.90
19025;DHT22;9645;51.448;6.260;2023-03-31T00:59:30;10.60;99.90
19025;DHT22;9645;51.448;6.260;2023-03-31T01:01:58;10.50;99.90
19025;DHT22;9645;51.448;6.260;2023-03-31T01:04:31;10.50;99.90
19025;DHT22;9645;51.448;6.260;2023-03-31T01:07:04;10.50;99.90
19025;DHT22;9645;51.448;6.260;2023-03-31T01:09:34;10.40;99.90
19025;DHT22;9645;51.448;6.260;2023-03-31T01:12:06;10.40;99.90
19025;DHT22;9645;51.448;6.260;2023-03-31T01:14:33;10.30;99.90
19025;DHT22;9645;51.448;6.260;2023-03-31T01:17:01;10.30;99.90
19025;DHT22;9645;51.448;6.260;2023-03-31T01:19:41;10.30;99.90
19025;DHT22;9645;51.448;6.260;2023-03-31T01:22:34;10.30;99.90
19025;DHT22;9645;51.448;6.260;2023-03-31T01:25:35;10.20;99.90
19025;DHT22;9645;51.448;6.260;2023-03-31T01:28:17;10.20;99.90
19025;DHT22;9645;51.448;6.260;2023-03-31T01:31:11;10.20;99.90
19025;DHT22;9645;51.448;6.260;2023-03-31T01:34:20;10.10;99.90
19025;DHT22;9645;51.448;6.260;2023-03-31T01:37:20;10.10;99.90
19025;DHT22;9645;51.448;6.260;2023-03-31T01:40:25;10.20;99.90
19025;DHT22;9645;51.448;6.260;2023-03-31T01:42:59;10.20;99.90
19025;DHT22;9645;51.448;6.260;2023-03-31T01:45:38;10.30;99.90
19025;DHT22;9645;51.448;6.260;2023-03-31T01:48:12;10.40;99.90
19025;DHT22;9645;51.448;6.260;2023-03-31T01:50:45;10.50;99.90
19025;DHT22;9645;51.448;6.260;2023-03-31T01:53:17;10.60;99.90
19025;DHT22;9645;51.448;6.260;2023-03-31T01:55:53;10.60;99.90
19025;DHT22;9645;51.448;6.260;2023-03-31T01:58:24;10.70;99.90
19025;DHT22;9645;51.448;6.260;2023-03-31T02:00:57;10.70;99.90
19025;DHT22;9645;51.448;6.260;2023-03-31T02:03:29;10.70;99.90
19025;DHT22;9645;51.448;6.260;2023-03-31T02:06:04;10.80;99.90
19025;DHT22;9645;51.448;6.260;2023-03-31T02:08:37;10.70;99.90
19025;DHT22;9645;51.448;6.260;2023-03-31T02:11:07;10.70;99.90
19025;DHT22;9645;51.448;6.260;2023-03-31T02:13:36;10.70;99.90
19025;DHT22;9645;51.448;6.260;2023-03-31T02:16:09;10.70;99.90
19025;DHT22;9645;51.448;6.260;2023-03-31T02:18:37;10.60;99.90
19025;DHT22;9645;51.448;6.260;2023-03-31T02:21:07;10.60;99.90
19025;DHT22;9645;51.448;6.260;2023-03-31T02:23:36;10.60;99.90
19025;DHT22;9645;51.448;6.260;2023-03-31T02:26:07;10.60;99.90
19025;DHT22;9645;51.448;6.260;2023-03-31T02:28:36;10.60;99.90
19025;DHT22;9645;51.448;6.260;2023-03-31T02:31:09;10.60;99.90
19025;DHT22;9645;51.448;6.260;2023-03-31T02:33:39;10.60;99.90
19025;DHT22;9645;51.448;6.260;2023-03-31T02:36:06;10.50;99.90
19025;DHT22;9645;51.448;6.260;2023-03-31T02:38:36;10.50;99.90
19025;DHT22;9645;51.448;6.260;2023-03-31T02:41:05;10.60;99.90
19025;DHT22;9645;51.448;6.260;2023-03-31T02:43:33;10.60;99.90
19025;DHT22;9645;51.448;6.260;2023-03-31T02:46:00;10.60;99.90
19025;DHT22;9645;51.448;6.260;2023-03-31T02:48:29;10.60;99.90
19025;DHT22;9645;51.448;6.260;2023-03-31T02:51:43;10.50;99.90
19025;DHT22;9645;51.448;6.260;2023-03-31T02:57:52;10.60;99.90
19025;DHT22;9645;51.448;6.260;2023-03-31T03:00:29;10.50;99.90
19025;DHT22;9645;51.448;6.260;2023-03-31T03:03:13;10.50;99.90
19025;DHT22;9645;51.448;6.260;2023-03-31T03:05:47;10.60;99.90
19025;DHT22;9645;51.448;6.260;2023-03-31T03:08:25;10.60;99.90
19025;DHT22;9645;51.448;6.260;2023-03-31T03:11:01;10.50;99.90
19025;DHT22;9645;51.448;6.260;2023-03-31T03:13:35;10.50;99.90
19025;DHT22;9645;51.448;6.260;2023-03-31T03:16:09;10.50;99.90
19025;DHT22;9645;51.448;6.260;2023-03-31T03:18:38;10.50;99.90
19025;DHT22;9645;51.448;6.260;2023-03-31T03:21:05;10.60;99.90
19025;DHT22;9645;51.448;6.260;2023-03-31T03:23:32;10.50;99.90
19025;DHT22;9645;51.448;6.260;2023-03-31T03:25:59;10.50;99.90
19025;DHT22;9645;51.448;6.260;2023-03-31T03:28:26;10.50;99.90
19025;DHT22;9645;51.448;6.260;2023-03-31T03:30:53;10.50;99.90
19025;DHT22;9645;51.448;6.260;2023-03-31T03:33:22;10.50;99.90
19025;DHT22;9645;51.448;6.260;2023-03-31T03:35:49;10.50;99.90
19025;DHT22;9645;51.448;6.260;2023-03-31T03:38:17;10.50;99.90
19025;DHT22;9645;51.448;6.260;2023-03-31T03:40:44;10.50;99.90
19025;DHT22;9645;51.448;6.260;2023-03-31T03:43:11;10.60;99.90
19025;DHT22;9645;51.448;6.260;2023-03-31T03:45:38;10.60;99.90
19025;DHT22;9645;51.448;6.260;2023-03-31T03:48:05;10.60;99.90
19025;DHT22;9645;51.448;6.260;2023-03-31T03:50:37;10.60;99.90
19025;DHT22;9645;51.448;6.260;2023-03-31T03:53:04;10.60;99.90
19025;DHT22;9645;51.448;6.260;2023-03-31T03:55:30;10.60;99.90
19025;DHT22;9645;51.448;6.260;2023-03-31T03:57:57;10.60;99.90
19025;DHT22;9645;51.448;6.260;2023-03-31T04:00:24;10.60;99.90
19025;DHT22;9645;51.448;6.260;2023-03-31T04:02:51;10.60;99.90
19025;DHT22;9645;51.448;6.260;2023-03-31T04:05:18;10.50;99.90
19025;DHT22;9645;51.448;6.260;2023-03-31T04:07:47;10.60;99.90
19025;DHT22;9645;51.448;6.260;2023-03-31T04:10:14;10.50;99.90
19025;DHT22;9645;51.448;6.260;2023-03-31T04:12:41;10.50;99.90
19025;DHT22;9645;51.448;6.260;2023-03-31T04:15:08;10.50;99.90
19025;DHT22;9645;51.448;6.260;2023-03-31T04:17:35;10.50;99.90
19025;DHT22;9645;51.448;6.260;2023-03-31T04:20:06;10.50;99.90
19025;DHT22;9645;51.448;6.260;2023-03-31T04:22:34;10.50;99.90
19025;DHT22;9645;51.448;6.260;2023-03-31T04:25:08;10.50;99.90
19025;DHT22;9645;51.448;6.260;2023-03-31T04:27:39;10.50;99.90
19025;DHT22;9645;51.448;6.260;2023-03-31T04:30:13;10.50;99.90
19025;DHT22;9645;51.448;6.260;2023-03-31T04:32:47;10.50;99.90
19025;DHT22;9645;51.448;6.260;2023-03-31T04:35:15;10.40;99.90
19025;DHT22;9645;51.448;6.260;2023-03-31T04:37:43;10.40;99.90
19025;DHT22;9645;51.448;6.260;2023-03-31T04:40:11;10.50;99.90
19025;DHT22;9645;51.448;6.260;2023-03-31T04:42:38;10.40;99.90
19025;DHT22;9645;51.448;6.260;2023-03-31T04:45:06;10.20;99.90
19025;DHT22;9645;51.448;6.260;2023-03-31T04:47:33;10.30;99.90
19025;DHT22;9645;51.448;6.260;2023-03-31T04:50:03;10.30;99.90
19025;DHT22;9645;51.448;6.260;2023-03-31T04:52:30;10.20;99.90
19025;DHT22;9645;51.448;6.260;2023-03-31T04:54:56;10.20;99.90
19025;DHT22;9645;51.448;6.260;2023-03-31T04:57:25;10.20;99.90
19025;DHT22;9645;51.448;6.260;2023-03-31T04:59:52;10.20;99.90
19025;DHT22;9645;51.448;6.260;2023-03-31T05:02:19;10.20;99.90
19025;DHT22;9645;51.448;6.260;2023-03-31T05:04:48;10.20;99.90
19025;DHT22;9645;51.448;6.260;2023-03-31T05:07:16;10.20;99.90
19025;DHT22;9645;51.448;6.260;2023-03-31T05:09:43;10.20;99.90
19025;DHT22;9645;51.448;6.260;2023-03-31T05:12:11;10.30;99.90
19025;DHT22;9645;51.448;6.260;2023-03-31T05:14:39;10.20;99.90
19025;DHT22;9645;51.448;6.260;2023-03-31T05:17:06;10.30;99.90
19025;DHT22;9645;51.448;6.260;2023-03-31T05:19:33;10.30;99.90
19025;DHT22;9645;51.448;6.260;2023-03-31T05:22:00;10.40;99.90
19025;DHT22;9645;51.448;6.260;2023-03-31T05:24:27;10.50;99.90
19025;DHT22;9645;51.448;6.260;2023-03-31T05:26:54;10.50;99.90
19025;DHT22;9645;51.448;6.260;2023-03-31T05:29:23;10.50;99.90
19025;DHT22;9645;51.448;6.260;2023-03-31T05:31:51;10.50;99.90
19025;DHT22;9645;51.448;6.260;2023-03-31T05:34:18;10.50;99.90
19025;DHT22;9645;51.448;6.260;2023-03-31T05:36:45;10.50;99.90
19025;DHT22;9645;51.448;6.260;2023-03-31T05:39:15;10.50;99.90
19025;DHT22;9645;51.448;6.260;2023-03-31T05:41:42;10.50;99.90
19025;DHT22;9645;51.448;6.260;2023-03-31T05:44:10;10.50;99.90
19025;DHT22;9645;51.448;6.260;2023-03-31T05:46:37;10.50;99.90
19025;DHT22;9645;51.448;6.260;2023-03-31T05:49:05;10.40;99.90
19025;DHT22;9645;51.448;6.260;2023-03-31T05:51:32;10.40;99.90
19025;DHT22;9645;51.448;6.260;2023-03-31T05:53:59;10.40;99.90
19025;DHT22;9645;51.448;6.260;2023-03-31T05:56:26;10.40;99.90
19025;DHT22;9645;51.448;6.260;2023-03-31T05:58:53;10.40;99.90
19025;DHT22;9645;51.448;6.260;2023-03-31T06:01:20;10.40;99.90
19025;DHT22;9645;51.448;6.260;2023-03-31T06:03:48;10.40;99.90
19025;DHT22;9645;51.448;6.260;2023-03-31T06:06:17;10.50;99.90
19025;DHT22;9645;51.448;6.260;2023-03-31T06:08:46;10.50;99.90
19025;DHT22;9645;51.448;6.260;2023-03-31T06:11:15;10.50;99.90
19025;DHT22;9645;51.448;6.260;2023-03-31T06:13:44;10.50;99.90
19025;DHT22;9645;51.448;6.260;2023-03-31T06:16:12;10.50;99.90
19025;DHT22;9645;51.448;6.260;2023-03-31T06:18:40;10.50;99.90
19025;DHT22;9645;51.448;6.260;2023-03-31T06:21:08;10.50;99.90
19025;DHT22;9645;51.448;6.260;2023-03-31T06:23:37;10.40;99.90
19025;DHT22;9645;51.448;6.260;2023-03-31T06:26:05;10.40;99.90
19025;DHT22;9645;51.448;6.260;2023-03-31T06:28:32;10.40;99.90
19025;DHT22;9645;51.448;6.260;2023-03-31T06:31:01;10.40;99.90
19025;DHT22;9645;51.448;6.260;2023-03-31T06:33:28;10.30;99.90
19025;DHT22;9645;51.448;6.260;2023-03-31T06:35:56;10.30;99.90
19025;DHT22;9645;51.448;6.260;2023-03-31T06:38:24;10.30;99.90
19025;DHT22;9645;51.448;6.260;2023-03-31T06:40:52;10.30;99.90
19025;DHT22;9645;51.448;6.260;2023-03-31T06:43:19;10.30;99.90
19025;DHT22;9645;51.448;6.260;2023-03-31T06:45:47;10.30;99.90
19025;DHT22;9645;51.448;6.260;2023-03-31T06:48:14;10.30;99.90
19025;DHT22;9645;51.448;6.260;2023-03-31T06:50:41;10.40;99.90
19025;DHT22;9645;51.448;6.260;2023-03-31T06:53:08;10.40;99.90
19025;DHT22;9645;51.448;6.260;2023-03-31T06:55:36;10.40;99.90
19025;DHT22;9645;51.448;6.260;2023-03-31T06:58:04;10.40;99.90
19025;DHT22;9645;51.448;6.260;2023-03-31T07:00:32;10.30;99.90
19025;DHT22;9645;51.448;6.260;2023-03-31T07:02:59;10.30;99.90
19025;DHT22;9645;51.448;6.260;2023-03-31T07:05:29;10.40;99.90
19025;DHT22;9645;51.448;6.260;2023-03-31T07:07:57;10.40;99.90
19025;DHT22;9645;51.448;6.260;2023-03-31T07:10:27;10.30;99.90
19025;DHT22;9645;51.448;6.260;2023-03-31T07:12:54;10.40;99.90
19025;DHT22;9645;51.448;6.260;2023-03-31T07:15:23;10.40;99.90
19025;DHT22;9645;51.448;6.260;2023-03-31T07:17:50;10.40;99.90
19025;DHT22;9645;51.448;6.260;2023-03-31T07:20:19;10.50;99.90
19025;DHT22;9645;51.448;6.260;2023-03-31T07:22:47;10.50;99.90
19025;DHT22;9645;51.448;6.260;2023-03-31T07:25:16;10.60;99.90
19025;DHT22;9645;51.448;6.260;2023-03-31T07:27:43;10.60;99.90
19025;DHT22;9645;51.448;6.260;2023-03-31T07:30:12;10.70;99.90
19025;DHT22;9645;51.448;6.260;2023-03-31T07:32:41;10.70;99.90
19025;DHT22;9645;51.448;6.260;2023-03-31T07:35:09;10.70;99.90
19025;DHT22;9645;51.448;6.260;2023-03-31T07:37:38;10.80;99.90
19025;DHT22;9645;51.448;6.260;2023-03-31T07:40:06;10.90;99.90
19025;DHT22;9645;51.448;6.260;2023-03-31T07:42:34;11.00;99.90
19025;DHT22;9645;51.448;6.260;2023-03-31T07:45:01;11.00;99.90
19025;DHT22;9645;51.448;6.260;2023-03-31T07:47:31;11.20;99.90
19025;DHT22;9645;51.448;6.260;2023-03-31T07:49:59;11.30;99.90
19025;DHT22;9645;51.448;6.260;2023-03-31T07:52:26;11.30;99.90
19025;DHT22;9645;51.448;6.260;2023-03-31T07:54:53;11.40;99.90
19025;DHT22;9645;51.448;6.260;2023-03-31T07:57:20;11.30;99.90
19025;DHT22;9645;51.448;6.260;2023-03-31T07:59:47;11.30;99.90
19025;DHT22;9645;51.448;6.260;2023-03-31T08:02:15;11.30;99.90
19025;DHT22;9645;51.448;6.260;2023-03-31T08:04:43;11.30;99.90
19025;DHT22;9645;51.448;6.260;2023-03-31T08:07:13;11.30;99.90
19025;DHT22;9645;51.448;6.260;2023-03-31T08:09:43;11.40;99.90
19025;DHT22;9645;51.448;6.260;2023-03-31T08:12:11;11.30;99.90
19025;DHT22;9645;51.448;6.260;2023-03-31T08:14:37;11.30;99.90
19025;DHT22;9645;51.448;6.260;2023-03-31T08:17:04;11.30;99.90
19025;DHT22;9645;51.448;6.260;2023-03-31T08:19:31;11.20;99.90
19025;DHT22;9645;51.448;6.260;2023-03-31T08:21:58;11.10;99.90
19025;DHT22;9645;51.448;6.260;2023-03-31T08:24:27;11.00;99.90
19025;DHT22;9645;51.448;6.260;2023-03-31T08:26:53;11.00;99.90
19025;DHT22;9645;51.448;6.260;2023-03-31T08:29:20;11.00;99.90
19025;DHT22;9645;51.448;6.260;2023-03-31T08:31:47;11.00;99.90
19025;DHT22;9645;51.448;6.260;2023-03-31T08:34:14;11.00;99.90
19025;DHT22;9645;51.448;6.260;2023-03-31T08:36:41;11.00;99.90
19025;DHT22;9645;51.448;6.260;2023-03-31T08:39:08;11.00;99.90
19025;DHT22;9645;51.448;6.260;2023-03-31T08:41:44;11.00;99.90
19025;DHT22;9645;51.448;6.260;2023-03-31T08:44:15;11.10;99.90
19025;DHT22;9645;51.448;6.260;2023-03-31T08:46:43;11.10;99.90
19025;DHT22;9645;51.448;6.260;2023-03-31T08:49:13;10.70;99.90
19025;DHT22;9645;51.448;6.260;2023-03-31T08:51:43;11.30;99.90
19025;DHT22;9645;51.448;6.260;2023-03-31T08:54:16;11.40;99.90
19025;DHT22;9645;51.448;6.260;2023-03-31T08:56:47;11.60;99.90
19025;DHT22;9645;51.448;6.260;2023-03-31T08:59:21;11.70;99.90
19025;DHT22;9645;51.448;6.260;2023-03-31T09:01:55;12.00;99.90
19025;DHT22;9645;51.448;6.260;2023-03-31T09:04:42;12.30;99.90
19025;DHT22;9645;51.448;6.260;2023-03-31T09:07:21;12.60;99.90
19025;DHT22;9645;51.448;6.260;2023-03-31T09:09:57;12.90;99.90
19025;DHT22;9645;51.448;6.260;2023-03-31T09:12:32;13.10;99.90
19025;DHT22;9645;51.448;6.260;2023-03-31T09:15:03;13.30;99.90
19025;DHT22;9645;51.448;6.260;2023-03-31T09:17:33;13.40;99.90
19025;DHT22;9645;51.448;6.260;2023-03-31T09:20:10;13.60;99.90
19025;DHT22;9645;51.448;6.260;2023-03-31T09:22:43;13.80;99.90
19025;DHT22;9645;51.448;6.260;2023-03-31T09:25:16;13.80;99.90
19025;DHT22;9645;51.448;6.260;2023-03-31T09:27:48;13.70;99.90
19025;DHT22;9645;51.448;6.260;2023-03-31T09:30:20;13.40;99.90
19025;DHT22;9645;51.448;6.260;2023-03-31T09:32:52;13.20;99.90
19025;DHT22;9645;51.448;6.260;2023-03-31T09:35:22;13.10;99.90
19025;DHT22;9645;51.448;6.260;2023-03-31T09:37:50;13.10;99.90
19025;DHT22;9645;51.448;6.260;2023-03-31T09:40:20;13.30;99.90
19025;DHT22;9645;51.448;6.260;2023-03-31T09:42:52;14.10;99.90
19025;DHT22;9645;51.448;6.260;2023-03-31T09:45:20;14.90;99.90
19025;DHT22;9645;51.448;6.260;2023-03-31T09:47:50;15.10;99.90
19025;DHT22;9645;51.448;6.260;2023-03-31T09:50:18;14.80;99.90
19025;DHT22;9645;51.448;6.260;2023-03-31T09:52:49;14.40;99.90
19025;DHT22;9645;51.448;6.260;2023-03-31T09:55:20;14.20;99.90
19025;DHT22;9645;51.448;6.260;2023-03-31T09:57:48;14.40;99.90
19025;DHT22;9645;51.448;6.260;2023-03-31T10:00:17;13.90;99.90
19025;DHT22;9645;51.448;6.260;2023-03-31T10:02:48;14.00;99.90
19025;DHT22;9645;51.448;6.260;2023-03-31T10:05:27;14.10;99.90
19025;DHT22;9645;51.448;6.260;2023-03-31T10:08:21;14.50;99.90
19025;DHT22;9645;51.448;6.260;2023-03-31T10:10:50;15.10;99.90
19025;DHT22;9645;51.448;6.260;2023-03-31T10:13:22;15.40;99.90
19025;DHT22;9645;51.448;6.260;2023-03-31T10:15:52;15.40;99.90
19025;DHT22;9645;51.448;6.260;2023-03-31T10:18:19;15.60;99.90
19025;DHT22;9645;51.448;6.260;2023-03-31T10:20:49;15.60;99.90
19025;DHT22;9645;51.448;6.260;2023-03-31T10:23:23;15.20;99.90
19025;DHT22;9645;51.448;6.260;2023-03-31T10:25:52;14.30;99.90
19025;DHT22;9645;51.448;6.260;2023-03-31T10:28:21;13.80;99.90
19025;DHT22;9645;51.448;6.260;2023-03-31T10:30:50;13.60;99.90
19025;DHT22;9645;51.448;6.260;2023-03-31T10:33:21;13.60;99.90
19025;DHT22;9645;51.448;6.260;2023-03-31T10:35:53;13.60;99.90
19025;DHT22;9645;51.448;6.260;2023-03-31T10:38:24;13.50;99.90
19025;DHT22;9645;51.448;6.260;2023-03-31T10:40:54;13.60;99.90
19025;DHT22;9645;51.448;6.260;2023-03-31T10:43:26;13.70;99.90
19025;DHT22;9645;51.448;6.260;2023-03-31T10:45:55;13.80;99.90
19025;DHT22;9645;51.448;6.260;2023-03-31T10:48:25;13.90;99.90
19025;DHT22;9645;51.448;6.260;2023-03-31T10:50:52;14.00;99.90
19025;DHT22;9645;51.448;6.260;2023-03-31T10:53:21;14.00;99.90
19025;DHT22;9645;51.448;6.260;2023-03-31T10:59:22;14.00;99.90
19025;DHT22;9645;51.448;6.260;2023-03-31T11:01:59;14.10;99.90
19025;DHT22;9645;51.448;6.260;2023-03-31T11:04:45;14.20;99.90
19025;DHT22;9645;51.448;6.260;2023-03-31T11:07:27;14.20;99.90
19025;DHT22;9645;51.448;6.260;2023-03-31T11:10:07;14.30;99.90
19025;DHT22;9645;51.448;6.260;2023-03-31T11:12:41;14.50;99.90
19025;DHT22;9645;51.448;6.260;2023-03-31T11:15:20;14.90;99.90
19025;DHT22;9645;51.448;6.260;2023-03-31T11:18:14;14.90;99.90
19025;DHT22;9645;51.448;6.260;2023-03-31T11:20:51;15.10;99.90
19025;DHT22;9645;51.448;6.260;2023-03-31T11:23:25;15.40;99.90
19025;DHT22;9645;51.448;6.260;2023-03-31T11:25:59;15.20;99.90
19025;DHT22;9645;51.448;6.260;2023-03-31T11:28:59;14.90;99.90
19025;DHT22;9645;51.448;6.260;2023-03-31T11:31:35;14.90;99.90
19025;DHT22;9645;51.448;6.260;2023-03-31T11:34:15;14.90;99.90
19025;DHT22;9645;51.448;6.260;2023-03-31T11:37:06;15.20;99.90
19025;DHT22;9645;51.448;6.260;2023-03-31T11:39:42;15.60;99.90
19025;DHT22;9645;51.448;6.260;2023-03-31T11:42:15;15.60;99.90
19025;DHT22;9645;51.448;6.260;2023-03-31T11:44:46;15.40;99.90
19025;DHT22;9645;51.448;6.260;2023-03-31T11:47:23;15.30;99.90
19025;DHT22;9645;51.448;6.260;2023-03-31T11:49:53;15.20;99.90
19025;DHT22;9645;51.448;6.260;2023-03-31T11:52:26;15.00;99.90
19025;DHT22;9645;51.448;6.260;2023-03-31T11:54:56;14.50;99.90
19025;DHT22;9645;51.448;6.260;2023-03-31T11:57:29;14.60;99.90
19025;DHT22;9645;51.448;6.260;2023-03-31T12:00:02;14.60;99.90
19025;DHT22;9645;51.448;6.260;2023-03-31T12:02:39;14.80;99.90
19025;DHT22;9645;51.448;6.260;2023-03-31T12:05:11;15.10;99.90
19025;DHT22;9645;51.448;6.260;2023-03-31T12:07:42;15.20;99.90
19025;DHT22;9645;51.448;6.260;2023-03-31T12:10:18;15.30;99.90
19025;DHT22;9645;51.448;6.260;2023-03-31T12:12:50;15.30;99.90
19025;DHT22;9645;51.448;6.260;2023-03-31T12:15:22;15.40;99.90
19025;DHT22;9645;51.448;6.260;2023-03-31T12:17:57;16.10;99.90
19025;DHT22;9645;51.448;6.260;2023-03-31T12:20:30;14.90;99.90
19025;DHT22;9645;51.448;6.260;2023-03-31T12:22:59;14.80;99.90
19025;DHT22;9645;51.448;6.260;2023-03-31T12:25:38;14.80;99.90
19025;DHT22;9645;51.448;6.260;2023-03-31T12:28:08;15.10;99.90
19025;DHT22;9645;51.448;6.260;2023-03-31T12:30:38;15.50;99.90
19025;DHT22;9645;51.448;6.260;2023-03-31T12:33:14;15.80;99.90
19025;DHT22;9645;51.448;6.260;2023-03-31T12:35:54;16.10;99.90
19025;DHT22;9645;51.448;6.260;2023-03-31T12:38:33;16.10;99.90
19025;DHT22;9645;51.448;6.260;2023-03-31T12:41:09;15.80;99.90
19025;DHT22;9645;51.448;6.260;2023-03-31T12:44:09;15.60;99.90
19025;DHT22;9645;51.448;6.260;2023-03-31T12:46:54;15.70;99.90
19025;DHT22;9645;51.448;6.260;2023-03-31T12:49:35;15.90;99.90
19025;DHT22;9645;51.448;6.260;2023-03-31T12:52:13;15.80;99.90
19025;DHT22;9645;51.448;6.260;2023-03-31T12:57:37;15.70;99.90
19025;DHT22;9645;51.448;6.260;2023-03-31T13:00:24;15.30;99.90
19025;DHT22;9645;51.448;6.260;2023-03-31T13:05:54;14.90;99.90
19025;DHT22;9645;51.448;6.260;2023-03-31T13:08:53;15.10;99.90
19025;DHT22;9645;51.448;6.260;2023-03-31T13:11:22;15.40;99.90
19025;DHT22;9645;51.448;6.260;2023-03-31T13:14:01;15.60;99.90
19025;DHT22;9645;51.448;6.260;2023-03-31T13:16:30;15.70;99.90
19025;DHT22;9645;51.448;6.260;2023-03-31T13:18:58;15.80;99.90
19025;DHT22;9645;51.448;6.260;2023-03-31T13:21:27;15.80;99.90
19025;DHT22;9645;51.448;6.260;2023-03-31T13:23:59;16.00;99.90
19025;DHT22;9645;51.448;6.260;2023-03-31T13:26:41;16.20;99.90
19025;DHT22;9645;51.448;6.260;2023-03-31T13:29:20;15.80;99.90
19025;DHT22;9645;51.448;6.260;2023-03-31T13:32:17;15.40;99.90
19025;DHT22;9645;51.448;6.260;2023-03-31T13:34:50;14.90;99.90
19025;DHT22;9645;51.448;6.260;2023-03-31T13:37:40;14.80;99.90
19025;DHT22;9645;51.448;6.260;2023-03-31T13:40:43;15.00;99.90
19025;DHT22;9645;51.448;6.260;2023-03-31T13:43:37;15.10;99.90
19025;DHT22;9645;51.448;6.260;2023-03-31T13:46:35;15.20;99.90
19025;DHT22;9645;51.448;6.260;2023-03-31T13:49:17;15.30;99.90
19025;DHT22;9645;51.448;6.260;2023-03-31T13:51:52;15.10;99.90
19025;DHT22;9645;51.448;6.260;2023-03-31T13:54:41;14.80;99.90
19025;DHT22;9645;51.448;6.260;2023-03-31T14:00:23;13.90;99.90
19025;DHT22;9645;51.448;6.260;2023-03-31T14:03:05;13.50;99.90
19025;DHT22;9645;51.448;6.260;2023-03-31T14:05:38;13.40;99.90
19025;DHT22;9645;51.448;6.260;2023-03-31T14:08:10;13.30;99.90
19025;DHT22;9645;51.448;6.260;2023-03-31T14:10:42;13.50;99.90
19025;DHT22;9645;51.448;6.260;2023-03-31T14:13:13;13.60;99.90
19025;DHT22;9645;51.448;6.260;2023-03-31T14:15:45;13.70;99.90
19025;DHT22;9645;51.448;6.260;2023-03-31T14:18:15;13.60;99.90
19025;DHT22;9645;51.448;6.260;2023-03-31T14:20:54;13.40;99.90
19025;DHT22;9645;51.448;6.260;2023-03-31T14:23:32;13.30;99.90
19025;DHT22;9645;51.448;6.260;2023-03-31T14:26:07;13.20;99.90
19025;DHT22;9645;51.448;6.260;2023-03-31T14:28:54;13.20;99.90
19025;DHT22;9645;51.448;6.260;2023-03-31T14:31:28;13.30;99.90
19025;DHT22;9645;51.448;6.260;2023-03-31T14:37:08;13.60;99.90
19025;DHT22;9645;51.448;6.260;2023-03-31T14:39:41;13.60;99.90
19025;DHT22;9645;51.448;6.260;2023-03-31T14:42:12;13.60;99.90
19025;DHT22;9645;51.448;6.260;2023-03-31T14:44:40;13.50;99.90
19025;DHT22;9645;51.448;6.260;2023-03-31T14:47:19;13.40;99.90
19025;DHT22;9645;51.448;6.260;2023-03-31T14:49:47;13.40;99.90
19025;DHT22;9645;51.448;6.260;2023-03-31T14:52:24;13.30;99.90
19025;DHT22;9645;51.448;6.260;2023-03-31T14:54:54;13.40;99.90
19025;DHT22;9645;51.448;6.260;2023-03-31T14:57:26;13.30;99.90
19025;DHT22;9645;51.448;6.260;2023-03-31T14:59:56;13.40;99.90
19025;DHT22;9645;51.448;6.260;2023-03-31T15:02:30;13.30;99.90
19025;DHT22;9645;51.448;6.260;2023-03-31T15:05:01;13.30;99.90
19025;DHT22;9645;51.448;6.260;2023-03-31T15:07:29;13.30;99.90
19025;DHT22;9645;51.448;6.260;2023-03-31T15:09:56;13.30;99.90
19025;DHT22;9645;51.448;6.260;2023-03-31T15:12:25;13.30;99.90
19025;DHT22;9645;51.448;6.260;2023-03-31T15:14:56;13.30;99.90
19025;DHT22;9645;51.448;6.260;2023-03-31T15:17:27;13.30;99.90
19025;DHT22;9645;51.448;6.260;2023-03-31T15:19:55;13.30;99.90
19025;DHT22;9645;51.448;6.260;2023-03-31T15:22:25;13.20;99.90
19025;DHT22;9645;51.448;6.260;2023-03-31T15:24:53;13.10;99.90
19025;DHT22;9645;51.448;6.260;2023-03-31T15:27:34;13.00;99.90
19025;DHT22;9645;51.448;6.260;2023-03-31T15:30:05;13.00;99.90
19025;DHT22;9645;51.448;6.260;2023-03-31T15:32:35;13.00;99.90
19025;DHT22;9645;51.448;6.260;2023-03-31T15:35:03;12.90;99.90
19025;DHT22;9645;51.448;6.260;2023-03-31T15:37:37;12.90;99.90
19025;DHT22;9645;51.448;6.260;2023-03-31T15:40:16;11.40;99.90
19025;DHT22;9645;51.448;6.260;2023-03-31T15:42:45;12.70;99.90
19025;DHT22;9645;51.448;6.260;2023-03-31T15:45:36;12.60;99.90
19025;DHT22;9645;51.448;6.260;2023-03-31T15:48:04;12.50;99.90
19025;DHT22;9645;51.448;6.260;2023-03-31T15:50:32;12.40;99.90
19025;DHT22;9645;51.448;6.260;2023-03-31T15:52:59;12.40;99.90
19025;DHT22;9645;51.448;6.260;2023-03-31T15:55:29;12.30;99.90
19025;DHT22;9645;51.448;6.260;2023-03-31T15:57:59;12.30;99.90
19025;DHT22;9645;51.448;6.260;2023-03-31T16:00:44;12.30;99.90
19025;DHT22;9645;51.448;6.260;2023-03-31T16:03:16;12.20;99.90
19025;DHT22;9645;51.448;6.260;2023-03-31T16:05:49;12.20;99.90
19025;DHT22;9645;51.448;6.260;2023-03-31T16:08:20;12.20;99.90
19025;DHT22;9645;51.448;6.260;2023-03-31T16:10:55;12.20;99.90
19025;DHT22;9645;51.448;6.260;2023-03-31T16:13:25;13.10;99.90
19025;DHT22;9645;51.448;6.260;2023-03-31T16:15:53;12.20;99.90
19025;DHT22;9645;51.448;6.260;2023-03-31T16:18:25;12.20;99.90
19025;DHT22;9645;51.448;6.260;2023-03-31T16:20:55;12.20;99.90
19025;DHT22;9645;51.448;6.260;2023-03-31T16:23:24;12.20;99.90
19025;DHT22;9645;51.448;6.260;2023-03-31T16:25:53;12.20;99.90
19025;DHT22;9645;51.448;6.260;2023-03-31T16:28:22;12.20;99.90
19025;DHT22;9645;51.448;6.260;2023-03-31T16:30:52;12.10;99.90
19025;DHT22;9645;51.448;6.260;2023-03-31T16:33:20;12.00;99.90
19025;DHT22;9645;51.448;6.260;2023-03-31T16:35:50;12.00;99.90